createdAt,value
2019-05-09T00:02:40.059Z,99402.72
2019-05-09T00:05:13.831Z,99412.18
2019-05-09T00:07:45.655Z,99408.89
2019-05-09T00:10:18.733Z,99413.33
2019-05-09T00:12:50.307Z,99418.84
2019-05-09T00:15:24.295Z,99416.88
2019-05-09T00:17:56.361Z,99410.67
2019-05-09T00:20:43.568Z,99411.76
2019-05-09T00:23:15.271Z,99403.23
2019-05-09T00:25:46.891Z,99407.21
2019-05-09T00:28:19.707Z,99403.92
2019-05-09T00:30:58.190Z,99406.70
2019-05-09T00:33:31.003Z,99400.13
2019-05-09T00:36:04.262Z,99401.76
2019-05-09T00:38:43.866Z,99396.69
2019-05-09T00:41:18.278Z,99404.97
2019-05-09T00:43:56.240Z,99404.73
2019-05-09T00:46:43.217Z,99412.84
2019-05-09T00:49:20.520Z,99406.18
2019-05-09T00:51:54.077Z,99410.98
2019-05-09T00:54:25.846Z,99408.69
2019-05-09T00:56:57.783Z,99406.06
2019-05-09T00:59:29.399Z,99411.34
2019-05-09T01:02:01.013Z,99408.08
2019-05-09T01:04:33.295Z,99406.57
2019-05-09T01:07:05.799Z,99405.80
2019-05-09T01:09:37.579Z,99403.74
2019-05-09T01:12:09.134Z,99411.31
2019-05-09T01:14:42.728Z,99403.95
2019-05-09T01:17:14.213Z,99402.33
2019-05-09T01:19:45.984Z,99396.64
2019-05-09T01:22:17.501Z,99408.36
2019-05-09T01:24:49.359Z,99399.16
2019-05-09T01:27:23.155Z,99403.58
2019-05-09T01:29:54.190Z,99403.43
2019-05-09T01:32:47.633Z,99403.28
2019-05-09T01:35:19.497Z,99401.98
2019-05-09T01:37:51.046Z,99404.70
2019-05-09T01:40:23.889Z,99400.56
2019-05-09T01:42:55.998Z,99402.58
2019-05-09T01:45:27.818Z,99393.60
2019-05-09T01:47:59.626Z,99400.01
2019-05-09T01:50:33.897Z,99402.92
2019-05-09T01:53:04.986Z,99408.98
2019-05-09T01:55:54.343Z,99405.27
2019-05-09T01:58:26.047Z,99398.77
2019-05-09T02:00:57.600Z,99407.17
2019-05-09T02:03:29.218Z,99404.18
2019-05-09T02:06:03.114Z,99404.70
2019-05-09T02:08:34.986Z,99392.41
2019-05-09T02:13:56.828Z,99389.88
2019-05-09T02:16:43.252Z,99387.31
2019-05-09T02:19:20.251Z,99394.30
2019-05-09T02:21:53.129Z,99386.10
2019-05-09T02:24:25.849Z,99382.85
2019-05-09T02:26:57.915Z,99383.44
2019-05-09T02:29:30.048Z,99387.53
2019-05-09T02:32:04.664Z,99384.63
2019-05-09T02:34:35.812Z,99388.17
2019-05-09T02:37:09.297Z,99394.75
2019-05-09T02:39:40.838Z,99397.73
2019-05-09T02:42:14.254Z,99393.22
2019-05-09T02:44:48.959Z,99397.72
2019-05-09T02:47:22.038Z,99402.69
2019-05-09T02:49:53.651Z,99399.94
2019-05-09T02:52:28.459Z,99401.42
2019-05-09T02:54:58.761Z,99404.09
2019-05-09T02:57:31.389Z,99405.70
2019-05-09T03:00:28.587Z,99393.80
2019-05-09T03:03:13.725Z,99398.45
2019-05-09T03:05:48.498Z,99396.84
2019-05-09T03:08:19.704Z,99395.02
2019-05-09T03:10:51.666Z,99400.69
2019-05-09T03:13:23.806Z,99393.72
2019-05-09T03:15:59.586Z,99395.92
2019-05-09T03:18:31.645Z,99394.28
2019-05-09T03:21:13.250Z,99387.05
2019-05-09T03:23:44.823Z,99386.79
2019-05-09T03:26:19.768Z,99388.22
2019-05-09T03:29:19.721Z,99389.33
2019-05-09T03:31:52.221Z,99396.63
2019-05-09T03:34:23.790Z,99393.72
2019-05-09T03:36:57.965Z,99391.52
2019-05-09T03:39:28.903Z,99391.58
2019-05-09T03:42:00.503Z,99392.84
2019-05-09T03:44:31.992Z,99388.80
2019-05-09T03:47:27.773Z,99385.97
2019-05-09T03:50:10.470Z,99391.20
2019-05-09T03:52:42.043Z,99387.16
2019-05-09T03:55:18.647Z,99384.34
2019-05-09T03:58:17.632Z,99385.09
2019-05-09T04:00:48.849Z,99387.55
2019-05-09T04:03:20.545Z,99386.28
2019-05-09T04:05:59.085Z,99387.19
2019-05-09T04:08:28.061Z,99386.34
2019-05-09T04:10:58.961Z,99387.49
2019-05-09T04:13:38.573Z,99385.89
2019-05-09T04:16:10.555Z,99388.92
2019-05-09T04:18:42.116Z,99390.09
2019-05-09T04:21:13.701Z,99388.99
2019-05-09T04:23:45.426Z,99386.99
2019-05-09T04:26:24.246Z,99388.98
2019-05-09T04:28:57.822Z,99398.54
2019-05-09T04:31:29.581Z,99395.79
2019-05-09T04:34:01.129Z,99397.75
2019-05-09T04:36:41.631Z,99396.93
2019-05-09T04:39:23.431Z,99400.92
2019-05-09T04:41:49.035Z,99402.23
2019-05-09T04:44:31.778Z,99404.78
2019-05-09T04:47:05.205Z,99404.52
2019-05-09T04:49:40.878Z,99407.67
2019-05-09T04:52:10.324Z,99403.51
2019-05-09T04:54:41.878Z,99412.08
2019-05-09T04:57:13.534Z,99399.47
2019-05-09T04:59:47.561Z,99403.41
2019-05-09T05:02:44.283Z,99409.02
2019-05-09T05:05:18.083Z,99406.94
2019-05-09T05:07:49.634Z,99413.97
2019-05-09T05:10:21.608Z,99411.95
2019-05-09T05:12:57.284Z,99413.46
2019-05-09T05:15:28.918Z,99419.19
2019-05-09T05:18:00.504Z,99417.42
2019-05-09T05:20:32.579Z,99417.52
2019-05-09T05:23:11.969Z,99421.41
2019-05-09T05:25:47.515Z,99419.53
2019-05-09T05:28:18.726Z,99427.61
2019-05-09T05:30:50.347Z,99419.06
2019-05-09T05:33:53.762Z,99428.22
2019-05-09T05:36:23.575Z,99421.87
2019-05-09T05:38:55.483Z,99426.03
2019-05-09T05:41:28.469Z,99426.55
2019-05-09T05:44:00.905Z,99435.92
2019-05-09T05:46:51.686Z,99437.84
2019-05-09T05:49:23.535Z,99432.19
2019-05-09T05:51:57.516Z,99436.01
2019-05-09T05:54:28.621Z,99431.00
2019-05-09T05:57:00.306Z,99432.72
2019-05-09T05:59:31.878Z,99429.61
2019-05-09T06:02:03.446Z,99428.17
2019-05-09T06:04:35.201Z,99437.17
2019-05-09T06:07:08.015Z,99434.67
2019-05-09T06:09:39.816Z,99438.94
2019-05-09T06:12:11.684Z,99444.53
2019-05-09T06:14:43.201Z,99434.19
2019-05-09T06:17:15.081Z,99435.89
2019-05-09T06:19:48.197Z,99440.23
2019-05-09T06:22:20.362Z,99445.78
2019-05-09T06:24:52.234Z,99453.56
2019-05-09T06:27:24.174Z,99452.95
2019-05-09T06:29:57.950Z,99462.20
2019-05-09T06:32:29.063Z,99457.41
2019-05-09T06:35:01.153Z,99469.82
2019-05-09T06:37:32.767Z,99468.15
2019-05-09T06:40:07.900Z,99473.85
2019-05-09T06:42:41.123Z,99471.08
2019-05-09T06:45:48.481Z,99463.70
2019-05-09T06:48:19.789Z,99469.62
2019-05-09T06:50:51.315Z,99468.26
2019-05-09T06:53:23.184Z,99474.99
2019-05-09T06:55:54.895Z,99475.18
2019-05-09T06:58:32.923Z,99473.05
2019-05-09T07:01:19.886Z,99472.94
2019-05-09T07:03:54.986Z,99474.98
2019-05-09T07:06:39.364Z,99476.95
2019-05-09T07:09:29.046Z,99474.41
2019-05-09T07:12:01.105Z,99482.92
2019-05-09T07:14:38.206Z,99484.32
2019-05-09T07:17:09.055Z,99482.67
2019-05-09T07:19:43.681Z,99480.69
2019-05-09T07:22:38.850Z,99487.53
2019-05-09T07:25:20.086Z,99494.28
2019-05-09T07:27:51.838Z,99480.82
2019-05-09T07:30:37.605Z,99484.73
2019-05-09T07:33:19.005Z,99490.45
2019-05-09T07:35:49.925Z,99493.84
2019-05-09T07:38:32.252Z,99481.97
2019-05-09T07:41:04.135Z,99491.82
2019-05-09T07:43:38.303Z,99501.95
2019-05-09T07:46:23.689Z,99492.82
2019-05-09T07:48:57.687Z,99492.36
2019-05-09T07:51:28.900Z,99495.65
2019-05-09T07:54:00.555Z,99494.70
2019-05-09T07:56:32.202Z,99498.41
2019-05-09T07:59:03.725Z,99506.08
2019-05-09T08:01:35.458Z,99501.48
2019-05-09T08:04:07.657Z,99504.26
2019-05-09T08:06:39.327Z,99505.66
2019-05-09T08:09:10.982Z,99511.52
2019-05-09T08:11:42.537Z,99521.11
2019-05-09T08:14:14.497Z,99521.66
2019-05-09T08:16:47.577Z,99524.98
2019-05-09T08:19:19.413Z,99526.54
2019-05-09T08:21:52.805Z,99530.00
2019-05-09T08:24:24.487Z,99527.70
2019-05-09T08:26:58.013Z,99529.06
2019-05-09T08:29:29.449Z,99541.45
2019-05-09T08:32:01.015Z,99539.19
2019-05-09T08:34:32.554Z,99542.00
2019-05-09T08:37:04.581Z,99548.42
2019-05-09T08:39:39.464Z,99553.44
2019-05-09T08:42:11.180Z,99552.28
2019-05-09T08:44:42.932Z,99555.83
2019-05-09T08:47:14.540Z,99553.32
2019-05-09T08:49:58.755Z,99552.47
2019-05-09T08:52:30.288Z,99550.50
2019-05-09T08:55:01.858Z,99550.26
2019-05-09T08:57:33.433Z,99561.35
2019-05-09T09:00:08.015Z,99562.39
2019-05-09T09:02:40.748Z,99565.65
2019-05-09T09:05:14.035Z,99564.48
2019-05-09T09:07:45.547Z,99564.58
2019-05-09T09:10:18.624Z,99569.48
2019-05-09T09:12:51.499Z,99565.47
2019-05-09T09:15:23.064Z,99572.88
2019-05-09T09:17:54.598Z,99577.67
2019-05-09T09:20:28.543Z,99572.80
2019-05-09T09:22:59.931Z,99583.58
2019-05-09T09:25:31.886Z,99581.45
2019-05-09T09:28:03.933Z,99577.41
2019-05-09T09:30:38.565Z,99588.66
2019-05-09T09:33:13.837Z,99586.45
2019-05-09T09:35:43.922Z,99584.27
2019-05-09T09:38:17.732Z,99582.59
2019-05-09T09:40:49.996Z,99591.53
2019-05-09T09:43:21.785Z,99584.20
2019-05-09T09:46:07.229Z,99587.14
2019-05-09T09:48:28.442Z,99592.09
2019-05-09T09:51:00.276Z,99598.89
2019-05-09T09:53:31.882Z,99599.09
2019-05-09T09:56:03.493Z,99601.88
2019-05-09T09:58:35.301Z,99602.61
2019-05-09T10:01:28.777Z,99610.28
2019-05-09T10:04:19.524Z,99601.80
2019-05-09T10:06:48.689Z,99600.77
2019-05-09T10:09:21.140Z,99606.34
2019-05-09T10:11:56.678Z,99603.51
2019-05-09T10:14:29.583Z,99606.56
2019-05-09T10:17:11.507Z,99607.77
2019-05-09T10:20:04.739Z,99606.41
2019-05-09T10:22:44.715Z,99619.42
2019-05-09T10:25:10.101Z,99626.18
2019-05-09T10:27:41.661Z,99620.78
2019-05-09T10:30:14.330Z,99625.91
2019-05-09T10:32:47.657Z,99630.89
2019-05-09T10:35:24.708Z,99626.94
2019-05-09T10:37:58.693Z,99630.26
2019-05-09T10:40:29.395Z,99638.30
2019-05-09T10:43:33.416Z,99638.44
2019-05-09T10:46:10.007Z,99658.09
2019-05-09T10:48:43.222Z,99647.54
2019-05-09T10:51:14.832Z,99654.47
2019-05-09T10:53:48.160Z,99657.21
2019-05-09T10:56:20.115Z,99659.28
2019-05-09T10:58:51.889Z,99656.20
2019-05-09T11:01:23.492Z,99664.01
2019-05-09T11:03:55.072Z,99665.79
2019-05-09T11:06:28.769Z,99664.01
2019-05-09T11:08:59.946Z,99663.20
2019-05-09T11:11:32.058Z,99664.14
2019-05-09T11:14:03.657Z,99673.91
2019-05-09T11:16:45.552Z,99677.11
2019-05-09T11:19:08.636Z,99682.27
2019-05-09T11:21:42.960Z,99680.39
2019-05-09T11:24:14.867Z,99678.27
2019-05-09T11:26:48.128Z,99677.27
2019-05-09T11:29:20.505Z,99679.95
2019-05-09T11:31:52.102Z,99678.63
2019-05-09T11:34:24.075Z,99682.54
2019-05-09T11:36:57.737Z,99689.77
2019-05-09T11:39:38.284Z,99690.22
2019-05-09T11:42:02.720Z,99688.72
2019-05-09T11:44:34.261Z,99690.93
2019-05-09T11:47:05.893Z,99696.25
2019-05-09T11:49:39.036Z,99692.03
2019-05-09T11:52:11.128Z,99698.13
2019-05-09T11:54:42.762Z,99699.75
2019-05-09T11:57:14.450Z,99701.16
2019-05-09T11:59:48.015Z,99703.94
2019-05-09T12:02:19.412Z,99702.13
2019-05-09T12:04:50.932Z,99705.88
2019-05-09T12:07:22.506Z,99714.53
2019-05-09T12:09:54.056Z,99708.89
2019-05-09T12:12:28.283Z,99709.30
2019-05-09T12:15:00.381Z,99718.20
2019-05-09T12:17:49.895Z,99718.71
2019-05-09T12:20:12.277Z,99720.23
2019-05-09T12:22:39.775Z,99724.94
2019-05-09T12:25:11.440Z,99733.54
2019-05-09T12:27:43.129Z,99735.28
2019-05-09T12:30:15.392Z,99736.34
2019-05-09T12:32:47.375Z,99740.46
2019-05-09T12:35:19.209Z,99739.39
2019-05-09T12:37:50.845Z,99743.52
2019-05-09T12:40:22.433Z,99745.92
2019-05-09T12:42:55.100Z,99741.67
2019-05-09T12:45:26.705Z,99739.78
2019-05-09T12:48:07.542Z,99750.63
2019-05-09T12:50:31.809Z,99746.42
2019-05-09T12:53:06.195Z,99750.16
2019-05-09T12:55:38.972Z,99745.66
2019-05-09T12:58:27.938Z,99753.22
2019-05-09T13:01:00.749Z,99761.20
2019-05-09T13:03:32.728Z,99755.84
2019-05-09T13:06:04.740Z,99753.81
2019-05-09T13:08:38.516Z,99760.62
2019-05-09T13:11:09.857Z,99763.48
2019-05-09T13:13:41.698Z,99762.91
2019-05-09T13:16:45.494Z,99761.97
2019-05-09T13:19:13.721Z,99767.09
2019-05-09T13:21:45.460Z,99774.23
2019-05-09T13:24:19.625Z,99783.94
2019-05-09T13:26:52.614Z,99778.68
2019-05-09T13:29:26.894Z,99774.95
2019-05-09T13:31:58.984Z,99770.24
2019-05-09T13:34:31.086Z,99780.83
2019-05-09T13:37:02.926Z,99783.17
2019-05-09T13:39:34.523Z,99782.21
2019-05-09T13:42:08.169Z,99784.92
2019-05-09T13:44:42.743Z,99774.14
2019-05-09T13:47:14.327Z,99792.65
2019-05-09T13:49:48.259Z,99785.36
2019-05-09T13:52:22.109Z,99788.85
2019-05-09T13:54:53.915Z,99782.11
2019-05-09T13:57:27.759Z,99783.41
2019-05-09T13:59:59.754Z,99779.50
2019-05-09T14:02:31.535Z,99777.59
2019-05-09T14:05:03.479Z,99780.58
2019-05-09T14:07:37.668Z,99770.88
2019-05-09T14:10:10.388Z,99775.25
2019-05-09T14:12:42.126Z,99779.55
2019-05-09T14:15:14.096Z,99781.39
2019-05-09T14:17:52.592Z,99786.02
2019-05-09T14:20:21.136Z,99794.31
2019-05-09T14:22:52.833Z,99800.89
2019-05-09T14:25:24.480Z,99793.73
2019-05-09T14:27:56.225Z,99796.80
2019-05-09T14:30:28.660Z,99811.44
2019-05-09T14:33:00.886Z,99810.87
2019-05-09T14:35:32.900Z,99821.42
2019-05-09T14:38:04.620Z,99824.63
2019-05-09T14:40:37.414Z,99835.41
2019-05-09T14:43:09.924Z,99828.52
2019-05-09T14:45:41.722Z,99831.47
2019-05-09T14:48:13.459Z,99828.20
2019-05-09T14:50:44.988Z,99820.83
2019-05-09T14:53:18.197Z,99821.74
2019-05-09T14:55:49.929Z,99824.39
2019-05-09T14:58:23.343Z,99819.78
2019-05-09T15:00:54.978Z,99826.00
2019-05-09T15:03:27.772Z,99824.28
2019-05-09T15:05:59.556Z,99827.95
2019-05-09T15:08:31.369Z,99833.39
2019-05-09T15:11:04.394Z,99836.06
2019-05-09T15:13:35.956Z,99829.30
2019-05-09T15:16:09.609Z,99838.09
2019-05-09T15:18:41.340Z,99844.16
2019-05-09T15:21:14.545Z,99848.48
2019-05-09T15:23:48.179Z,99849.97
2019-05-09T15:26:19.483Z,99851.16
2019-05-09T15:28:51.130Z,99849.55
2019-05-09T15:31:22.781Z,99862.58
2019-05-09T15:33:54.377Z,99857.22
2019-05-09T15:36:25.884Z,99860.40
2019-05-09T15:38:59.248Z,99867.97
2019-05-09T15:41:31.079Z,99870.70
2019-05-09T15:44:02.642Z,99870.33
2019-05-09T15:46:43.305Z,99871.58
2019-05-09T15:49:15.009Z,99872.54
2019-05-09T15:51:47.781Z,99864.65
2019-05-09T15:54:19.588Z,99868.49
2019-05-09T15:56:51.433Z,99873.24
2019-05-09T15:59:23.040Z,99864.00
2019-05-09T16:01:58.336Z,99859.86
2019-05-09T16:04:29.840Z,99864.96
2019-05-09T16:07:01.890Z,99870.39
2019-05-09T16:09:33.536Z,99876.59
2019-05-09T16:12:07.640Z,99881.56
2019-05-09T16:14:39.197Z,99882.42
2019-05-09T16:17:10.769Z,99885.48
2019-05-09T16:19:43.446Z,99889.19
2019-05-09T16:22:15.039Z,99886.91
2019-05-09T16:24:48.596Z,99887.75
2019-05-09T16:27:20.097Z,99889.75
2019-05-09T16:29:51.713Z,99884.77
2019-05-09T16:32:25.378Z,99887.17
2019-05-09T16:34:57.104Z,99891.94
2019-05-09T16:37:28.895Z,99892.27
2019-05-09T16:40:00.783Z,99893.37
2019-05-09T16:42:32.435Z,99897.63
2019-05-09T16:45:04.297Z,99900.75
2019-05-09T16:47:36.059Z,99899.97
2019-05-09T16:50:11.940Z,99907.99
2019-05-09T16:52:43.730Z,99906.44
2019-05-09T16:55:20.449Z,99908.69
2019-05-09T16:57:52.087Z,99907.77
2019-05-09T17:00:44.530Z,99914.63
2019-05-09T17:03:17.619Z,99917.48
2019-05-09T17:05:50.412Z,99915.70
2019-05-09T17:08:22.399Z,99919.59
2019-05-09T17:10:53.977Z,99921.59
2019-05-09T17:13:28.843Z,99919.97
2019-05-09T17:16:03.120Z,99924.98
2019-05-09T17:18:34.995Z,99937.72
2019-05-09T17:21:32.610Z,99930.93
2019-05-09T17:24:08.103Z,99930.77
2019-05-09T17:26:39.197Z,99936.47
2019-05-09T17:29:11.320Z,99938.83
2019-05-09T17:31:43.144Z,99936.54
2019-05-09T17:34:17.781Z,99947.48
2019-05-09T17:36:49.072Z,99944.25
2019-05-09T17:39:20.633Z,99945.69
2019-05-09T17:41:52.493Z,99957.93
2019-05-09T17:44:27.932Z,99949.78
2019-05-09T17:46:58.872Z,99954.39
2019-05-09T17:49:30.450Z,99948.52
2019-05-09T17:52:02.301Z,99960.63
2019-05-09T17:54:33.950Z,99957.55
2019-05-09T17:57:07.995Z,99967.37
2019-05-09T17:59:39.457Z,99961.57
2019-05-09T18:02:11.359Z,99970.17
2019-05-09T18:04:43.336Z,99973.44
2019-05-09T18:07:18.074Z,99967.69
2019-05-09T18:09:49.346Z,99967.86
2019-05-09T18:12:21.395Z,99959.31
2019-05-09T18:14:53.522Z,99968.31
2019-05-09T18:17:27.525Z,99970.91
2019-05-09T18:19:59.281Z,99966.23
2019-05-09T18:22:31.206Z,99962.25
2019-05-09T18:25:03.273Z,99963.33
2019-05-09T18:27:35.260Z,99964.21
2019-05-09T18:30:08.554Z,99968.38
2019-05-09T18:32:54.503Z,99969.41
2019-05-09T18:35:27.840Z,99969.73
2019-05-09T18:37:59.993Z,99969.73
2019-05-09T18:40:32.202Z,99970.05
2019-05-09T18:43:04.020Z,99976.42
2019-05-09T18:45:37.613Z,99988.22
2019-05-09T18:48:09.516Z,99988.81
2019-05-09T18:50:41.513Z,99988.33
2019-05-09T18:53:13.303Z,99992.46
2019-05-09T18:55:44.901Z,99984.73
2019-05-09T18:58:16.680Z,99990.56
2019-05-09T19:00:48.257Z,99985.69
2019-05-09T19:03:20.419Z,99992.36
2019-05-09T19:05:52.046Z,99993.19
2019-05-09T19:08:23.730Z,99988.50
2019-05-09T19:10:55.611Z,100002.70
2019-05-09T19:13:27.580Z,99997.28
2019-05-09T19:16:30.175Z,100000.70
2019-05-09T19:19:23.530Z,99995.20
2019-05-09T19:21:58.563Z,100001.57
2019-05-09T19:24:30.118Z,100001.14
2019-05-09T19:27:01.880Z,100001.80
2019-05-09T19:29:33.452Z,100010.80
2019-05-09T19:32:05.666Z,100008.14
2019-05-09T19:34:37.326Z,100004.22
2019-05-09T19:37:08.884Z,100013.90
2019-05-09T19:39:40.884Z,100023.91
2019-05-09T19:42:12.559Z,100024.95
2019-05-09T19:44:44.274Z,100024.61
2019-05-09T19:47:16.060Z,100025.38
2019-05-09T19:49:47.942Z,100024.23
2019-05-09T19:52:19.445Z,100030.89
2019-05-09T19:54:50.965Z,100027.02
2019-05-09T19:57:22.838Z,100031.19
2019-05-09T19:59:54.462Z,100026.72
2019-05-09T20:02:26.076Z,100034.67
2019-05-09T20:04:57.765Z,100031.48
2019-05-09T20:07:29.422Z,100035.70
2019-05-09T20:10:20.089Z,100032.98
2019-05-09T20:13:10.269Z,100038.81
2019-05-09T20:15:42.280Z,100034.28
2019-05-09T20:18:14.554Z,100042.30
2019-05-09T20:20:46.837Z,100038.05
2019-05-09T20:23:18.781Z,100030.06
2019-05-09T20:25:50.695Z,100035.50
2019-05-09T20:28:22.582Z,100046.11
2019-05-09T20:30:54.506Z,100045.11
2019-05-09T20:33:27.821Z,100041.83
2019-05-09T20:35:59.887Z,100048.98
2019-05-09T20:38:31.666Z,100052.47
2019-05-09T20:41:03.852Z,100057.58
2019-05-09T20:43:37.004Z,100057.05
2019-05-09T20:46:10.456Z,100056.34
2019-05-09T20:48:45.026Z,100061.17
2019-05-09T20:51:16.930Z,100061.29
2019-05-09T20:53:48.880Z,100063.19
2019-05-09T20:56:20.869Z,100069.70
2019-05-09T20:58:53.697Z,100072.86
2019-05-09T21:01:25.726Z,100065.22
2019-05-09T21:04:00.513Z,100058.83
2019-05-09T21:06:31.571Z,100071.02
2019-05-09T21:09:04.746Z,100065.75
2019-05-09T21:11:37.442Z,100069.16
2019-05-09T21:14:09.320Z,100059.11
2019-05-09T21:16:41.579Z,100062.29
2019-05-09T21:19:13.543Z,100063.11
2019-05-09T21:21:45.551Z,100068.35
2019-05-09T21:24:17.755Z,100065.11
2019-05-09T21:26:49.809Z,100065.73
2019-05-09T21:29:22.022Z,100061.16
2019-05-09T21:31:54.409Z,100061.61
2019-05-09T21:34:27.007Z,100067.59
2019-05-09T21:36:58.675Z,100074.19
2019-05-09T21:39:30.403Z,100071.36
2019-05-09T21:42:02.142Z,100076.55
2019-05-09T21:44:33.996Z,100082.08
2019-05-09T21:47:06.195Z,100076.90
2019-05-09T21:49:38.145Z,100077.64
2019-05-09T21:52:10.194Z,100086.34
2019-05-09T21:54:42.002Z,100078.22
2019-05-09T21:57:13.992Z,100086.41
2019-05-09T21:59:46.040Z,100084.39
2019-05-09T22:02:18.077Z,100084.70
2019-05-09T22:04:49.696Z,100086.54
2019-05-09T22:07:23.403Z,100085.27
2019-05-09T22:09:55.749Z,100085.08
2019-05-09T22:12:27.519Z,100086.81
2019-05-09T22:15:03.341Z,100093.41
2019-05-09T22:17:40.626Z,100098.78
2019-05-09T22:20:13.118Z,100095.75
2019-05-09T22:22:44.736Z,100096.41
2019-05-09T22:25:16.843Z,100108.33
2019-05-09T22:27:48.790Z,100107.55
2019-05-09T22:30:20.891Z,100120.93
2019-05-09T22:32:52.543Z,100122.33
2019-05-09T22:35:24.276Z,100134.80
2019-05-09T22:37:56.104Z,100135.50
2019-05-09T22:40:28.097Z,100145.31
2019-05-09T22:42:59.675Z,100151.05
2019-05-09T22:45:31.635Z,100155.02
2019-05-09T22:48:03.607Z,100164.52
2019-05-09T22:50:36.812Z,100161.53
2019-05-09T22:53:08.393Z,100162.58
2019-05-09T22:55:40.283Z,100172.64
2019-05-09T22:58:13.107Z,100175.61
2019-05-09T23:00:45.241Z,100182.33
2019-05-09T23:03:17.012Z,100184.53
2019-05-09T23:05:48.548Z,100186.57
2019-05-09T23:08:20.992Z,100194.45
2019-05-09T23:10:53.551Z,100197.52
2019-05-09T23:13:25.728Z,100197.86
2019-05-09T23:16:00.524Z,100201.48
2019-05-09T23:18:32.241Z,100201.23
2019-05-09T23:21:04.142Z,100194.20
2019-05-09T23:23:40.046Z,100204.09
2019-05-09T23:26:14.438Z,100211.36
2019-05-09T23:28:46.285Z,100220.78
2019-05-09T23:31:22.299Z,100220.99
2019-05-09T23:33:53.962Z,100225.38
2019-05-09T23:36:25.564Z,100230.06
2019-05-09T23:39:28.544Z,100238.11
2019-05-09T23:42:00.135Z,100238.52
2019-05-09T23:44:31.864Z,100243.06
2019-05-09T23:47:03.446Z,100248.58
2019-05-09T23:49:35.182Z,100246.27
2019-05-09T23:52:06.710Z,100245.09
2019-05-09T23:54:56.279Z,100245.65
2019-05-09T23:57:48.773Z,100255.97
